Weather observations for the past three days for
Ludington, Mason County Airport
Imperial (Metric)
Date Time (edt) Wind (mph) Vis. (mi.) Weather Sky Cond. Temperature (ºF) Relative Humidity Wind Chill (°F) Heat Index (°F) Pressure Precipitation (in)
Air Dwpt 6 hour altimeter (in) sea level (mb) 1 hr 3 hr 6 hr
Max. Min.
10 13:15 SW 12 10.00 Partly Cloudy SCT100 51.8 30.2 44% 30.08 0.0
10 12:55 W 8 10.00 Partly Cloudy SCT100 51.8 30.2 44% 30.08 0.0
10 12:35 W 8 G 16 10.00 Mostly Cloudy SCT080 BKN110 51.8 32 47% 30.08 0.0
10 12:15 W 9 10.00 Mostly Cloudy SCT080 BKN110 51.8 28.4 41% 30.08 0.0
10 11:55 W 8 10.00 Mostly Cloudy BKN110 50 30.2 47% 47 30.08 0.0
10 11:35 W 10 10.00 A Few Clouds FEW110 51.8 30.2 44% 30.07 0.0
10 11:15 W 10 10.00 Partly Cloudy SCT110 50 30.2 47% 46 30.07 0.0
10 10:55 W 8 10.00 A Few Clouds FEW110 50 32 50% 47 30.06 0.0
10 10:35 W 8 10.00 Fair CLR 50 32 50% 47 30.06 0.0
10 10:15 W 9 10.00 Fair CLR 50 32 50% 47 30.06 0.0
10 09:55 W 8 10.00 Fair CLR 48.2 33.8 58% 45 30.05 0.0
10 09:35 W 8 10.00 Fair CLR 48.2 33.8 58% 45 30.05 0.0
10 09:15 W 8 10.00 Fair CLR 46.4 33.8 62% 43 30.05 0.0
10 08:55 Vrbl 5 10.00 Fair CLR 46.4 33.8 62% 45 30.04 0.0
10 08:35 Vrbl 6 10.00 Fair CLR 44.6 33.8 66% 42 30.04 0.0
10 08:15 W 8 10.00 Fair CLR 44.6 35.6 71% 41 30.03 0.0
10 07:55 W 3 10.00 Fair CLR 39.2 35.6 39.2 27.9 87% 30.02 0.0
10 07:35 Calm 10.00 Fair CLR 33.8 32 93% 30.02 0.0
10 07:15 E 1 10.00 Fair CLR 30.2 28.4 93% 30.01 0.0
10 06:55 E 1 10.00 Fair CLR 30.2 28.4 93% 30 0.0
10 06:35 Calm 10.00 Fair CLR 30.2 28.4 93% 29.99 0.0
10 06:15 Calm 10.00 Fair CLR 30.2 30.2 100% 29.98 0.0
10 05:55 Calm 10.00 Fair CLR 28.4 28.4 100% 29.98 0.0
10 05:35 Calm 10.00 Fair CLR 30.2 30.2 100% 29.97 0.0
10 05:15 SE 1 10.00 Fair CLR 30.2 30.2 100% 29.96 0.0
10 04:55 N 1 10.00 Fair CLR 30.2 30.2 100% 29.96 0.0
10 04:35 Vrbl 1 10.00 Fair CLR 30.2 30.2 100% 29.95 0.0
10 04:15 Calm 10.00 Fair CLR 32 30.2 93% 29.94 0.0
10 03:55 Calm 10.00 Fair CLR 33.8 30.2 87% 29.94 0.0
10 03:35 Calm 10.00 Fair CLR 33.8 30.2 87% 29.93 0.0
10 03:15 E 1 10.00 Fair CLR 33.8 30.2 87% 29.93 0.0
10 02:55 E 1 10.00 Fair CLR 33.8 30.2 87% 29.92 0.0
10 02:35 NW 2 10.00 Fair CLR 35.6 30.2 81% 29.92 0.0
10 02:15 Calm 10.00 Fair CLR 35.6 30.2 81% 29.92 0.0
10 01:55 E 3 10.00 Fair CLR 39.2 30.2 51.3 37.8 70% 29.91 0.0
10 01:35 E 1 10.00 Partly Cloudy SCT095 39.2 30.2 70% 29.91 0.0
10 01:15 NE 3 10.00 Overcast OVC095 41 30.2 66% 29.91 0.0
10 00:55 NE 3 10.00 Overcast OVC095 42.8 30.2 61% 29.9 0.0
10 00:35 E 3 10.00 Mostly Cloudy BKN095 42.8 30.2 61% 29.9 0.0
10 00:15 NE 3 10.00 A Few Clouds FEW095 42.8 30.2 61% 29.89 0.0
09 23:55 Vrbl 3 10.00 Fair CLR 42.8 30.2 61% 29.89 0.0
09 23:35 NE 3 10.00 Fair CLR 44.6 30.2 57% 29.88 0.0
09 23:15 NE 3 10.00 Fair CLR 44.6 30.2 57% 29.86 0.0
09 22:55 NE 3 10.00 Fair CLR 44.6 32 61% 29.84 0.0
09 22:35 NE 5 10.00 Fair CLR 46.4 32 57% 45 29.83 0.0
09 22:15 N 7 10.00 Fair CLR 46.4 32 57% 43 29.82 0.0
09 21:55 N 5 10.00 Fair CLR 46.4 32 57% 45 29.8 0.0
09 21:35 N 6 10.00 Fair CLR 48.2 32 54% 46 29.79 0.0
09 21:15 N 8 10.00 Fair CLR 48.2 30.2 50% 45 29.77 0.0
09 20:55 N 7 G 17 10.00 Fair CLR 50 32 50% 48 29.76 0.0
09 20:35 NW 7 10.00 Fair CLR 48.2 37.4 66% 46 29.75 0.0
09 20:15 W 3 10.00 Fair CLR 50 37.4 62% 29.73 0.0
09 19:55 W 7 10.00 Fair CLR 51.8 39.2 58.5 51.3 62% 29.72 0.0
09 19:35 SW 9 10.00 Fair CLR 53.6 37.4 54% 29.71 0.0
09 19:15 Vrbl 5 10.00 A Few Clouds FEW100 57.2 37.4 48% 29.7 0.0
09 18:55 Vrbl 7 10.00 A Few Clouds FEW100 57.2 37.4 48% 29.7 0.0
09 18:35 W 6 10.00 Fair CLR 57.2 37.4 48% 29.69 0.0
09 18:15 W 6 10.00 Fair CLR 57.2 37.4 48% 29.68 0.0
09 17:55 W 8 10.00 Partly Cloudy SCT100 57.2 37.4 48% 29.68 0.0
09 17:35 W 8 10.00 Mostly Cloudy BKN100 57.2 37.4 48% 29.67 0.0
09 17:15 W 6 10.00 Overcast OVC100 55.4 37.4 51% 29.66 0.0
09 16:55 W 6 10.00 Overcast FEW080 OVC100 57.2 35.6 44% 29.66 0.0
09 16:35 SW 5 10.00 Overcast SCT065 SCT080 OVC100 55.4 35.6 47% 29.65 0.0
09 16:15 W 7 10.00 Mostly Cloudy SCT065 BKN100 55.4 35.6 47% 29.65 0.0
09 15:55 W 6 10.00 Overcast BKN075 OVC085 55.4 35.6 47% 29.65 0.0
09 15:35 W 7 10.00 Overcast BKN075 OVC085 55.4 37.4 51% 29.64 0.0
09 15:15 SW 8 10.00 Overcast OVC075 53.6 37.4 54% 29.64 0.0
09 14:55 SW 8 10.00 Overcast OVC085 55.4 35.6 47% 29.63 0.0
09 14:35 W 12 10.00 Overcast OVC075 55.4 35.6 47% 29.63 0.0
09 14:15 W 7 10.00 Overcast OVC075 55.4 35.6 47% 29.62 0.0
09 13:35 SW 2 10.00 Overcast OVC075 51.8 35.6 54% 29.62 0.0
09 13:15 SW 2 10.00 Overcast OVC075 50 37.4 62% 29.61 0.0
09 12:55 W 6 10.00 Overcast OVC075 50 41 71% 48 29.61 0.0
09 12:35 S 3 10.00 Overcast OVC075 51.8 39.2 62% 29.6 0.0
09 12:15 SW 3 10.00 Overcast OVC075 50 39.2 67% 29.6 0.0
09 11:55 N 5 10.00 Overcast FEW065 OVC075 50 41 71% 49 29.6 0.0
09 11:35 E 5 10.00 Light Rain OVC055 50 39.2 67% 49 29.59 0.0
09 11:15 W 5 10.00 Light Rain OVC055 48.2 39.2 71% 47 29.61 0.0
09 10:55 W 8 10.00 Light Rain OVC060 48.2 39.2 71% 45 29.6 0.0
09 10:35 SW 10 10.00 Overcast BKN070 OVC080 50 39.2 67% 46 29.59 0.0
09 10:15 N 10 10.00 Light Rain FEW070 BKN080 OVC090 50 39.2 67% 46 29.55 0.0
09 09:55 W 6 10.00 Overcast BKN100 OVC120 50 39.2 67% 48 29.55 0.0
09 09:35 W 12 G 17 10.00 Partly Cloudy SCT110 48.2 41 76% 44 29.55 0.0
09 09:15 SW 12 G 17 10.00 Fair CLR 50 42.8 76% 46 29.53 0.0
09 08:55 SW 15 G 18 10.00 Fair CLR 50 44.6 82% 45 29.52 0.0
09 08:35 SW 15 G 20 10.00 Fair CLR 50 44.6 82% 45 29.52 0.0
09 08:15 SW 16 10.00 Fair CLR 50 44.6 82% 45 29.51 0.0
09 07:55 SW 18 G 25 10.00 A Few Clouds FEW100 50 44.6 57.4 48.9 82% 44 29.51 0.0
09 07:35 SW 13 G 23 10.00 Partly Cloudy SCT100 50 46.4 88% 46 29.51 0.0
09 07:15 SW 14 G 22 10.00 Mostly Cloudy BKN110 50 46.4 88% 45 29.51 0.0
09 06:55 SW 16 G 20 10.00 Mostly Cloudy BKN110 50 46.4 88% 45 29.5 0.0
09 06:35 SW 16 G 25 10.00 Mostly Cloudy BKN110 50 46.4 88% 45 29.51 0.0
09 06:15 SW 16 G 25 10.00 Partly Cloudy SCT110 51.8 46.4 82% 29.51 0.0
09 05:55 SW 18 G 28 10.00 Overcast OVC110 51.8 46.4 82% 29.51 0.0
09 05:35 SW 16 G 28 10.00 Mostly Cloudy BKN110 53.6 46.4 77% 29.52 0.0
09 05:15 SW 14 G 25 10.00 Mostly Cloudy BKN110 53.6 46.4 77% 29.53 0.0
09 04:55 S 17 G 26 10.00 Mostly Cloudy BKN100 53.6 46.4 77% 29.53 0.0
09 04:35 S 16 G 25 10.00 Fair CLR 53.6 44.6 72% 29.53 0.0
09 04:15 S 16 G 23 10.00 Fair CLR 53.6 44.6 72% 29.54 0.0
09 03:55 S 14 10.00 A Few Clouds FEW120 53.6 42.8 67% 29.54 0.0
09 03:35 S 16 G 28 10.00 Partly Cloudy SCT110 53.6 44.6 72% 29.55 0.0
09 03:15 S 18 G 26 10.00 Mostly Cloudy BKN095 BKN120 57.2 44.6 63% 29.56 0.0
09 02:55 S 14 G 20 10.00 Mostly Cloudy BKN095 BKN110 57.2 42.8 59% 29.58 0.0
09 02:35 S 12 10.00 Mostly Cloudy FEW075 BKN095 55.4 39.2 55% 29.59 0.0
09 02:15 S 10 10.00 Mostly Cloudy BKN095 55.4 35.6 47% 29.6 0.0
09 01:55 S 10 10.00 Overcast BKN095 OVC120 55.4 33.8 59.2 54.1 44% 29.61 0.0
09 01:35 S 10 10.00 Overcast FEW070 BKN095 OVC120 55.4 32 41% 29.62 0.0
09 01:15 S 8 10.00 Overcast OVC110 55.4 32 41% 29.63 0.0
09 00:55 S 6 10.00 Overcast OVC120 55.4 28.4 36% 29.63 0.0
09 00:35 S 6 10.00 Mostly Cloudy BKN120 55.4 24.8 31% 29.64 0.0
09 00:15 S 7 10.00 Partly Cloudy SCT120 55.4 21.2 26% 29.64 0.0
08 23:55 S 7 10.00 Mostly Cloudy SCT100 BKN120 55.4 21.2 26% 29.65 0.0
08 23:35 SW 9 10.00 Overcast FEW065 OVC100 55.4 21.2 26% 29.66 0.0
08 23:15 S 7 10.00 Overcast OVC100 55.4 21.2 26% 29.66 0.0
08 22:55 S 7 10.00 Overcast OVC100 55.4 21.2 26% 29.66 0.0
08 22:35 S 8 10.00 Overcast OVC110 55.4 23 28% 29.67 0.0
08 22:15 SE 6 10.00 Overcast OVC110 55.4 23 28% 29.67 0.0
08 21:55 SE 5 10.00 Overcast OVC110 55.4 24.8 31% 29.67 0.0
08 21:35 SE 5 10.00 Overcast OVC100 55.4 24.8 31% 29.67 0.0
08 21:15 SE 5 10.00 Overcast OVC110 55.4 23 28% 29.67 0.0
08 20:55 S 8 10.00 Partly Cloudy SCT100 55.4 23 28% 29.67 0.0
08 20:35 SE 6 10.00 A Few Clouds FEW100 57.2 24.8 29% 29.67 0.0
08 20:15 S 10 10.00 Mostly Cloudy BKN100 59 24.8 27% 29.67 0.0
08 19:55 S 6 10.00 Overcast OVC100 59 24.8 60.8 56.1 27% 29.68 0.0
08 19:35 Vrbl 7 10.00 Overcast OVC100 57.2 24.8 29% 29.68 0.0
08 19:15 S 9 10.00 Mostly Cloudy BKN100 57.2 26.6 31% 29.69 0.0
08 18:55 SW 14 G 20 10.00 A Few Clouds FEW100 57.2 26.6 31% 29.69 0.0
08 18:35 SW 12 10.00 A Few Clouds FEW100 59 28.4 31% 29.7 0.0
08 18:15 SW 13 10.00 Fair CLR 59 26.6 29% 29.7 0.0
08 17:55 SW 12 10.00 Fair CLR 59 28.4 31% 29.71 0.0
08 17:35 S 15 10.00 Fair CLR 59 28.4 31% 29.71 0.0
08 17:15 S 14 10.00 Fair CLR 59 30.2 34% 29.71 0.0
08 16:55 SW 17 10.00 Fair CLR 59 28.4 31% 29.72 0.0
08 16:35 SW 20 G 25 10.00 Fair CLR 59 28.4 31% 29.73 0.0
08 16:15 SW 18 G 24 10.00 Fair CLR 59 28.4 31% 29.73 0.0
08 15:55 SW 16 G 22 10.00 Fair CLR 59 26.6 29% 29.74 0.0
08 15:35 SW 17 G 23 10.00 Fair CLR 60.8 24.8 25% 29.75 0.0
08 15:15 SW 16 G 23 10.00 Fair CLR 59 26.6 29% 29.75 0.0
08 14:55 SW 17 G 24 10.00 Fair CLR 59 28.4 31% 29.76 0.0
08 14:35 SW 15 G 25 10.00 Fair CLR 59 30.2 34% 29.77 0.0
08 14:15 SW 16 G 28 10.00 Fair CLR 57.2 30.2 36% 29.78 0.0
08 13:55 SW 15 G 25 10.00 Fair CLR 57.2 33.8 56.8 38.8 41% 29.79 0.0
08 13:35 SW 17 G 23 10.00 Fair CLR 57.2 33.8 41% 29.8 0.0
08 13:15 SW 15 10.00 Fair CLR 55.4 37.4 51% 29.81 0.0
08 12:55 SW 18 G 24 10.00 Fair CLR 55.4 37.4 51% 29.81 0.0
08 12:35 SW 16 G 22 10.00 Fair CLR 55.4 37.4 51% 29.82 0.0
08 12:15 SW 17 G 24 10.00 Fair CLR 53.6 37.4 54% 29.82 0.0
08 11:55 SW 17 10.00 Fair CLR 53.6 35.6 51% 29.82 0.0
08 11:35 SW 16 G 22 10.00 Fair CLR 53.6 37.4 54% 29.82 0.0
08 11:15 SW 15 10.00 Fair CLR 53.6 37.4 54% 29.82 0.0
08 10:55 SW 14 10.00 Fair CLR 51.8 37.4 58% 29.83 0.0
08 10:35 SW 16 10.00 Fair CLR 51.8 37.4 58% 29.83 0.0
08 10:15 SW 16 10.00 Fair CLR 51.8 35.6 54% 29.83 0.0
08 09:55 SW 15 G 18 10.00 Fair CLR 50 35.6 58% 45 29.83 0.0
08 09:35 SW 12 10.00 Fair CLR 50 35.6 58% 46 29.83 0.0
08 09:15 SW 14 G 20 10.00 Fair CLR 48.2 35.6 62% 43 29.83 0.0
08 08:55 SW 13 10.00 Fair CLR 48.2 35.6 62% 43 29.84 0.0
08 08:35 SW 10 10.00 Fair CLR 46.4 35.6 66% 42 29.83 0.0
08 08:15 SW 10 10.00 Fair CLR 46.4 35.6 66% 42 29.83 0.0
08 07:55 S 5 10.00 Fair CLR 42.8 35.6 38.8 27 76% 41 29.83 0.0
08 07:35 SE 2 10.00 Fair CLR 35.6 32 87% 29.82 0.0
08 07:15 S 3 10.00 Fair CLR 30.2 30.2 100% 29.82 0.0
08 06:55 Vrbl 2 10.00 Fair CLR 28.4 28.4 100% 29.83 0.0
08 06:35 E 2 10.00 Fair CLR 28.4 26.6 93% 29.82 0.0
08 06:15 E 2 6.00 Fog/Mist CLR 28.4 28.4 100% 29.82 0.0
08 05:55 E 2 10.00 Fair CLR 30.2 28.4 93% 29.83 0.0
08 05:35 E 2 10.00 Fair CLR 28.4 28.4 100% 29.83 0.0
08 05:15 Calm 8.00 Fair CLR 28.4 26.6 93% 29.84 0.0
08 04:55 NE 1 10.00 Fair CLR 30.2 28.4 93% 29.84 0.0
08 04:35 E 2 10.00 Fair CLR 28.4 28.4 100% 29.84 0.0
08 04:15 E 1 9.00 Fair CLR 30.2 30.2 100% 29.85 0.0
08 03:55 N 1 6.00 Fog/Mist CLR 28.4 28.4 100% 29.85 0.0
08 03:35 E 2 10.00 Fair CLR 32 32 100% 29.85 0.0
08 03:15 NE 1 10.00 Fair CLR 32 30.2 93% 29.86 0.0
08 02:55 SE 1 10.00 Fair CLR 32 30.2 93% 29.86 0.0
08 02:35 E 1 10.00 Fair CLR 32 30.2 93% 29.86 0.0
08 02:15 E 1 10.00 Fair CLR 32 32 100% 29.87 0.0
08 01:55 E 1 10.00 Fair CLR 32 32 47.1 31.3 100% 29.87 0.0
08 01:35 E 1 10.00 Fair CLR 32 30.2 93% 29.87 0.0
08 01:15 E 1 10.00 Fair CLR 32 32 100% 29.87 0.0
08 00:55 Calm 10.00 Fair CLR 33.8 32 93% 29.87 0.0
08 00:35 Calm 10.00 Fair CLR 33.8 32 93% 29.87 0.0
08 00:15 Calm 10.00 Fair CLR 35.6 33.8 93% 29.87 0.0
07 23:55 E 1 10.00 Fair CLR 37.4 32 81% 29.87 0.0
07 23:35 SE 1 10.00 Fair CLR 37.4 32 81% 29.87 0.0
07 23:15 SW 1 10.00 A Few Clouds FEW085 37.4 32 81% 29.87 0.0
07 22:55 E 2 10.00 Mostly Cloudy BKN085 37.4 32 81% 29.88 0.0
07 22:35 N 2 10.00 Partly Cloudy SCT085 37.4 32 81% 29.88 0.0
07 22:15 Calm 10.00 Partly Cloudy SCT085 39.2 32 75% 29.87 0.0
07 21:55 Calm 10.00 A Few Clouds FEW085 39.2 32 75% 29.87 0.0
07 21:35 N 2 10.00 A Few Clouds FEW080 42.8 32 66% 29.86 0.0
07 21:15 N 5 10.00 Mostly Cloudy BKN080 42.8 32 66% 41 29.85 0.0
07 20:55 Vrbl 1 10.00 Mostly Cloudy BKN080 BKN090 44.6 30.2 57% 29.85 0.0
07 20:35 S 3 10.00 Mostly Cloudy BKN080 46.4 30.2 53% 29.85 0.0
07 20:15 S 6 10.00 Partly Cloudy SCT090 46.4 30.2 53% 44 29.84 0.0
07 19:55 Vrbl 5 10.00 A Few Clouds FEW075 46.4 30.2 49.1 46.2 53% 45 29.84 0.0
07 19:35 S 7 10.00 Mostly Cloudy SCT075 BKN090 48.2 30.2 50% 46 29.85 0.0
07 19:15 SW 6 10.00 Overcast OVC090 46.4 30.2 53% 44 29.85 0.0
07 18:55 SW 7 10.00 Mostly Cloudy FEW075 BKN090 46.4 28.4 50% 43 29.86 0.0
07 18:35 SW 6 10.00 Partly Cloudy SCT075 SCT090 48.2 30.2 50% 46 29.86 0.0
07 18:15 S 7 10.00 Overcast SCT070 OVC085 46.4 30.2 53% 43 29.86 0.0
07 17:55 SW 9 10.00 Overcast FEW050 BKN070 OVC085 46.4 28.4 50% 42 29.87 0.0
07 17:35 SW 8 10.00 Mostly Cloudy FEW070 BKN080 48.2 28.4 46% 45 29.87 0.0
07 17:15 SW 9 10.00 Mostly Cloudy BKN070 BKN080 48.2 28.4 46% 45 29.87 0.0
07 16:55 SW 9 10.00 Mostly Cloudy FEW055 BKN065 BKN085 46.4 28.4 50% 42 29.87 0.0
07 16:35 SW 9 10.00 Partly Cloudy SCT080 48.2 30.2 50% 45 29.88 0.0
07 16:15 SW 14 10.00 Partly Cloudy FEW055 FEW070 SCT080 48.2 26.6 43% 43 29.88 0.0
07 15:55 SW 12 10.00 Fair CLR 48.2 26.6 43% 44 29.89 0.0
07 15:35 W 8 10.00 Fair CLR 48.2 28.4 46% 45 29.89 0.0
07 15:15 W 12 10.00 A Few Clouds FEW085 46.4 26.6 46% 42 29.9 0.0
07 14:55 SW 10 10.00 Fair CLR 48.2 26.6 43% 44 29.9 0.0
07 14:35 Vrbl 7 10.00 Fair CLR 46.4 26.6 46% 43 29.9 0.0
07 14:15 W 9 10.00 Fair CLR 48.2 26.6 43% 45 29.9 0.0
07 13:55 SW 9 G 16 10.00 Fair CLR 48.2 28.4 48.9 36.3 46% 45 29.9 0.0
07 13:35 W 9 10.00 Fair CLR 46.4 26.6 46% 42 29.91 0.0
Date Time (edt) Wind (mph) Vis. (mi.) Weather Sky Cond. Air Dwpt Max. Min. Relative Humidity Wind Chill (°F) Heat Index (°F) altimeter (in) sea level (mb) 1 hr 3 hr 6 hr
6 hour
Temperature (ºF) Pressure Precipitation (in)